Ana Sayfa
METAR-TAF:

METAR-TAF

Havaalanları :

Cengiz Topel Havalimanı

İzmit, Türkiye

Enlem: 40-44N, Boylam: 030-05E, yükseklik: 50 m

Güncel hava durumu gözlemi

Rapor saat 03:50 UTC de 57 dakika önce yapıldı.
Sakin rüzgar
Sıcaklık 0°C
Nem 100%
Basınç 1023 hPa
Görüş mesafesi: 7000 m
3500 ft yükseklikte parçalı bulutlu

METAR: LTBQ 130350Z 00000KT 7000 SCT035 M00/M00 Q1023 NOSIG

Saat: 07:47 (04:47 UTC)

Tahmin

Rapor saat 02:53 UTC de 1 saat ve 54 dakika önce yapıldı.
Ayın 13'si saat 03 UTC'den ayın 13'si saat 12 UTC'ye kadar geçerli Tahmin
Rüzgar değişken yönden 2 kt
Görüş mesafesi: 7000 m
3500 ft yükseklikte parçalı bulutlu
Geçici
ayın 13'si saat 04 UTC'den ayın 13'si saat 07 UTC'ye kadar
Görüş mesafesi: 3200 m
Pus

TAF: LTBQ 130253Z 1303/1312 VRB02KT 7000 SCT035 TEMPO 1304/1307 3200 BR

4.000'den fazla havaalanı için hava durumu gözlemleri ve tahminleri (METAR ve TAF raporları).

Kullanılabilir istasyonlar harita üzerinde sarı ve kırmızı noktalarla gösterilir.

İstasyonun adını görmek için fareyi noktanın üzerinde gezdirin.

Sonrasında hava gözlem ve tahminlerini görmek için tıklayın.

Haritayı değiştirmek için: yaklaştırmak için siyah artı işaretli yeşil düğmeye ve uzaklaştırmak için de eksi işaretli düğmeye hızla tıklayın; bitişik haritalar için yeşil okları kullanın.


METAR-TAF: